Time;durP1;ratioP1;P1;durP2;ratioP2;P2;SDS_P1;SDS_P2;PMS_P1;PMS_P2;Temp;Humidity;BMP_temperature;BMP_pressure;BME280_temperature;BME280_humidity;BME280_pressure;Samples;Min_cycle;Max_cycle;Signal;HPM_P1;HPM_P2
2021/01/03 00:01:50;;;;;;;31.95;14.15;;;;;;;;;;4879915;29;20124;-78
2021/01/03 00:04:15;;;;;;;28.98;12.73;;;3.70;99.90;;;;;;4870692;29;20136;-78
2021/01/03 00:06:42;;;;;;;26.55;12.25;;;;;;;;;;4861967;29;20518;-79
2021/01/03 00:09:08;;;;;;;30.38;13.00;;;;;;;;;;4861301;29;20045;-78
2021/01/03 00:11:34;;;;;;;29.10;12.05;;;;;;;;;;4861445;29;20041;-77
2021/01/03 00:14:02;;;;;;;27.88;12.68;;;;;;;;;;4861855;29;20054;-79
2021/01/03 00:16:28;;;;;;;31.88;13.63;;;;;;;;;;4861419;29;20045;-79
2021/01/03 00:18:54;;;;;;;33.67;13.68;;;;;;;;;;4861303;29;20049;-79
2021/01/03 00:21:20;;;;;;;27.33;12.02;;;3.60;99.90;;;;;;4861411;29;20586;-78
2021/01/03 00:23:46;;;;;;;24.40;12.40;;;;;;;;;;4861426;29;20456;-78
2021/01/03 00:26:12;;;;;;;28.80;13.38;;;3.60;99.90;;;;;;4861259;29;20049;-78
2021/01/03 00:28:38;;;;;;;27.33;12.43;;;;;;;;;;4862097;29;20137;-78
2021/01/03 00:31:04;;;;;;;32.88;13.82;;;;;;;;;;4863629;29;20109;-78
2021/01/03 00:33:30;;;;;;;30.17;13.52;;;3.60;99.90;;;;;;4863337;29;20045;-78
2021/01/03 00:35:56;;;;;;;30.90;13.38;;;4.40;99.90;;;;;;4863218;29;20160;-78
2021/01/03 00:38:22;;;;;;;24.23;12.05;;;;;;;;;;4863654;29;20044;-79
2021/01/03 00:40:48;;;;;;;32.13;11.38;;;;;;;;;;4863587;29;20432;-78
2021/01/03 00:43:14;;;;;;;24.40;10.90;;;3.60;99.90;;;;;;4871618;29;20048;-79
2021/01/03 00:45:40;;;;;;;21.75;10.35;;;;;;;;;;4882214;29;20471;-78
2021/01/03 00:48:09;;;;;;;25.80;10.35;;;3.60;99.90;;;;;;4883603;29;20040;-78
2021/01/03 00:50:35;;;;;;;20.90;9.98;;;;;;;;;;4883030;29;20056;-79
2021/01/03 00:53:02;;;;;;;18.13;8.52;;;3.50;99.90;;;;;;4884678;29;20053;-79
2021/01/03 00:55:28;;;;;;;20.13;8.10;;;;;;;;;;4884902;29;20045;-81
2021/01/03 00:57:54;;;;;;;18.58;8.65;;;;;;;;;;4887251;29;20059;-81
2021/01/03 01:00:23;;;;;;;15.75;8.15;;;3.40;99.90;;;;;;4884487;29;20048;-80
2021/01/03 01:02:49;;;;;;;22.65;8.75;;;;;;;;;;4886927;29;20138;-81
2021/01/03 01:05:17;;;;;;;16.83;8.35;;;3.40;99.90;;;;;;4887847;29;20106;-81
2021/01/03 01:07:43;;;;;;;15.18;6.60;;;3.40;99.90;;;;;;4884460;29;20057;-78
2021/01/03 01:10:12;;;;;;;15.98;6.93;;;3.40;99.90;;;;;;4880558;29;20583;-78
2021/01/03 01:12:38;;;;;;;15.95;6.25;;;3.30;99.90;;;;;;4880491;29;20049;-78
2021/01/03 01:15:05;;;;;;;14.40;6.15;;;3.30;99.90;;;;;;4880357;29;20056;-79
2021/01/03 01:17:31;;;;;;;12.10;5.78;;;3.30;99.90;;;;;;4880220;29;20076;-79
2021/01/03 01:19:57;;;;;;;12.32;6.35;;;3.40;99.90;;;;;;4879990;29;20075;-80
2021/01/03 01:22:23;;;;;;;14.80;6.72;;;3.30;99.90;;;;;;4880266;29;20076;-79
2021/01/03 01:24:49;;;;;;;12.20;6.28;;;;;;;;;;4880618;29;20045;-79
2021/01/03 01:27:15;;;;;;;10.10;5.20;;;3.30;99.90;;;;;;4881408;29;20051;-79
2021/01/03 01:29:41;;;;;;;12.80;5.47;;;;;;;;;;4881012;29;20053;-80
2021/01/03 01:32:07;;;;;;;15.32;6.75;;;3.30;99.90;;;;;;4880113;29;20507;-80
2021/01/03 01:34:33;;;;;;;17.40;8.15;;;3.30;99.90;;;;;;4880701;29;20100;-79
2021/01/03 01:36:58;;;;;;;17.08;7.53;;;3.20;99.90;;;;;;4880242;29;20068;-79
2021/01/03 01:39:25;;;;;;;13.00;5.97;;;3.20;99.90;;;;;;4879936;29;20412;-78
2021/01/03 01:41:51;;;;;;;10.15;4.53;;;;;;;;;;4879963;29;20458;-78
2021/01/03 01:44:16;;;;;;;9.48;4.05;;;3.20;99.90;;;;;;4879851;29;20049;-79
2021/01/03 01:46:56;;;;;;;8.93;3.67;;;3.20;99.90;;;;;;4879601;29;20041;-78
2021/01/03 01:49:22;;;;;;;7.55;3.25;;;3.30;99.90;;;;;;4879763;29;20502;-79
2021/01/03 01:51:52;;;;;;;7.95;3.63;;;3.20;99.90;;;;;;4879642;29;20048;-78
2021/01/03 01:54:23;;;;;;;11.18;4.88;;;3.30;99.90;;;;;;4880193;29;20051;-78
2021/01/03 01:56:57;;;;;;;11.90;5.40;;;3.30;99.90;;;;;;4880215;29;20045;-78
2021/01/03 01:59:31;;;;;;;13.07;6.07;;;3.30;99.90;;;;;;4879928;29;20490;-80
2021/01/03 02:02:03;;;;;;;11.85;5.20;;;3.30;99.90;;;;;;4880258;29;20073;-78
2021/01/03 02:04:32;;;;;;;11.68;4.70;;;3.30;99.90;;;;;;4880385;29;20048;-78
2021/01/03 02:07:04;;;;;;;12.48;5.35;;;3.30;99.90;;;;;;4880278;29;20402;-78
2021/01/03 02:09:37;;;;;;;11.80;5.22;;;3.30;99.90;;;;;;4880020;29;20057;-78
2021/01/03 02:12:12;;;;;;;15.90;7.00;;;3.20;99.90;;;;;;4879726;29;20041;-79
2021/01/03 02:14:38;;;;;;;15.02;6.07;;;3.20;99.90;;;;;;4880156;29;20041;-78
2021/01/03 02:17:06;;;;;;;13.73;6.80;;;3.20;99.90;;;;;;4880143;29;20041;-78
2021/01/03 02:19:33;;;;;;;14.20;7.00;;;3.20;99.90;;;;;;4879870;29;20052;-78
2021/01/03 02:22:05;;;;;;;18.30;8.05;;;3.20;99.90;;;;;;4879820;29;20040;-78
2021/01/03 02:24:40;;;;;;;16.50;7.95;;;3.20;99.90;;;;;;4881600;29;20052;-78
2021/01/03 02:27:13;;;;;;;17.65;7.82;;;3.10;99.90;;;;;;4882837;29;20076;-79
2021/01/03 02:29:40;;;;;;;18.13;8.35;;;3.10;99.90;;;;;;4882785;29;20113;-79
2021/01/03 02:32:06;;;;;;;18.48;7.20;;;3.10;99.90;;;;;;4882831;29;20041;-78
2021/01/03 02:34:34;;;;;;;16.73;7.63;;;3.10;99.90;;;;;;4884319;29;20055;-78
2021/01/03 02:37:04;;;;;;;18.55;8.23;;;3.10;99.90;;;;;;4879704;29;20077;-78
2021/01/03 02:39:35;;;;;;;19.33;8.18;;;3.10;99.90;;;;;;4882898;29;20041;-77
2021/01/03 02:42:13;;;;;;;16.58;7.65;;;3.10;99.90;;;;;;4882774;29;20494;-79
2021/01/03 02:44:38;;;;;;;17.67;7.53;;;3.00;99.90;;;;;;4882821;29;20053;-78
2021/01/03 02:47:04;;;;;;;18.45;7.78;;;3.00;99.90;;;;;;4882665;29;20032;-78
2021/01/03 02:49:29;;;;;;;14.93;6.93;;;3.00;99.90;;;;;;4882450;29;20555;-79
2021/01/03 02:51:55;;;;;;;17.17;7.47;;;3.00;99.90;;;;;;4882481;29;20057;-79
2021/01/03 02:54:21;;;;;;;12.80;5.88;;;3.00;99.90;;;;;;4882318;29;20071;-80
2021/01/03 02:56:49;;;;;;;14.43;6.72;;;2.90;99.90;;;;;;4882761;29;20060;-78
2021/01/03 02:59:15;;;;;;;14.90;6.60;;;;;;;;;;4882335;29;20108;-78
2021/01/03 03:01:41;;;;;;;14.88;6.38;;;;;;;;;;4882362;29;20112;-78
2021/01/03 03:04:07;;;;;;;14.82;6.07;;;2.90;99.90;;;;;;4883947;29;20048;-78
2021/01/03 03:06:32;;;;;;;12.05;5.93;;;2.90;99.90;;;;;;4883515;29;20052;-78
2021/01/03 03:08:58;;;;;;;14.38;6.20;;;2.90;99.90;;;;;;4882028;29;20041;-78
2021/01/03 03:11:24;;;;;;;10.77;5.70;;;2.90;99.90;;;;;;4883820;29;20041;-78
2021/01/03 03:13:49;;;;;;;13.40;5.88;;;2.90;99.90;;;;;;4882526;29;20053;-78
2021/01/03 03:16:17;;;;;;;11.10;5.00;;;2.90;99.90;;;;;;4882482;29;20503;-78
2021/01/03 03:18:43;;;;;;;10.10;5.18;;;2.90;99.90;;;;;;4881679;29;20057;-78
2021/01/03 03:21:08;;;;;;;13.98;5.30;;;2.90;99.90;;;;;;4882306;29;20049;-78
2021/01/03 03:23:34;;;;;;;11.23;4.88;;;2.90;99.90;;;;;;4883484;29;20069;-79
2021/01/03 03:26:00;;;;;;;10.27;4.60;;;;;;;;;;4882200;29;20085;-79
2021/01/03 03:28:25;;;;;;;10.68;5.10;;;3.00;99.90;;;;;;4882003;29;20045;-78
2021/01/03 03:30:51;;;;;;;10.27;4.40;;;2.90;99.90;;;;;;4882165;29;20045;-79
2021/01/03 03:33:17;;;;;;;7.80;3.90;;;2.90;99.90;;;;;;4882215;29;20422;-78
2021/01/03 03:35:44;;;;;;;7.95;4.00;;;3.00;99.90;;;;;;4881145;29;20053;-78
2021/01/03 03:38:10;;;;;;;9.20;4.45;;;2.90;99.90;;;;;;4879825;29;20041;-78
2021/01/03 03:40:39;;;;;;;10.85;4.68;;;2.90;99.90;;;;;;4882405;29;20052;-81
2021/01/03 03:43:06;;;;;;;9.23;4.90;;;2.90;99.90;;;;;;4883342;29;20511;-78
2021/01/03 03:45:32;;;;;;;9.10;4.90;;;;;;;;;;4882071;29;20073;-81
2021/01/03 03:47:58;;;;;;;9.50;4.35;;;2.90;99.90;;;;;;4882203;29;20108;-79
2021/01/03 03:50:25;;;;;;;11.52;4.95;;;2.90;99.90;;;;;;4881606;29;20040;-79
2021/01/03 03:52:51;;;;;;;15.35;5.32;;;2.90;99.90;;;;;;4882374;29;20079;-81
2021/01/03 03:55:17;;;;;;;13.65;4.95;;;2.90;99.90;;;;;;4882292;29;20402;-81
2021/01/03 03:57:43;;;;;;;11.45;4.82;;;2.90;99.90;;;;;;4882383;29;20040;-81
2021/01/03 04:00:12;;;;;;;10.30;4.60;;;2.90;99.90;;;;;;4881974;29;20045;-81
2021/01/03 04:02:40;;;;;;;12.63;4.78;;;2.90;99.90;;;;;;4881993;29;20041;-81
2021/01/03 04:05:08;;;;;;;12.07;4.60;;;2.90;99.90;;;;;;4882064;29;20041;-80
2021/01/03 04:07:35;;;;;;;9.57;4.35;;;2.90;99.90;;;;;;4883180;29;20049;-81
2021/01/03 04:10:02;;;;;;;9.85;4.78;;;2.90;99.90;;;;;;4880757;29;20547;-77
2021/01/03 04:12:28;;;;;;;10.48;4.78;;;2.90;99.90;;;;;;4881054;29;20048;-78
2021/01/03 04:14:53;;;;;;;10.90;4.57;;;2.90;99.90;;;;;;4881184;29;20041;-79
2021/01/03 04:17:19;;;;;;;7.47;4.10;;;3.00;99.90;;;;;;4881037;29;20056;-81
2021/01/03 04:19:45;;;;;;;8.18;3.90;;;2.90;99.90;;;;;;4880633;29;20048;-78
2021/01/03 04:22:10;;;;;;;9.55;4.15;;;2.90;99.90;;;;;;4881028;29;20040;-78
2021/01/03 04:24:37;;;;;;;7.82;3.45;;;2.90;99.90;;;;;;4881474;29;20095;-78
2021/01/03 04:27:05;;;;;;;6.43;3.33;;;2.90;99.90;;;;;;4881115;29;20044;-80
2021/01/03 04:29:31;;;;;;;9.65;3.55;;;2.90;99.90;;;;;;4880473;29;20052;-78
2021/01/03 04:31:58;;;;;;;10.82;4.10;;;2.90;99.90;;;;;;4881290;29;20051;-78
2021/01/03 04:34:25;;;;;;;7.32;3.50;;;2.90;99.90;;;;;;4880580;29;20135;-78
2021/01/03 04:36:51;;;;;;;6.22;3.63;;;2.90;99.90;;;;;;4881695;29;20459;-78
2021/01/03 04:39:18;;;;;;;8.02;3.60;;;2.90;99.90;;;;;;4878578;29;20413;-78
2021/01/03 04:41:46;;;;;;;7.25;3.65;;;3.00;99.90;;;;;;4881088;29;20083;-78
2021/01/03 04:44:18;;;;;;;6.78;3.85;;;3.00;99.90;;;;;;4880999;29;20147;-78
2021/01/03 04:46:44;;;;;;;9.45;3.47;;;3.00;99.90;;;;;;4880200;29;20045;-78
2021/01/03 04:49:19;;;;;;;7.15;3.17;;;3.00;99.90;;;;;;4880706;29;20149;-78
2021/01/03 04:52:17;;;;;;;7.50;3.50;;;3.00;99.90;;;;;;4880804;29;20076;-78
2021/01/03 04:54:50;;;;;;;5.90;2.65;;;3.00;99.90;;;;;;4880737;29;20056;-78
2021/01/03 04:57:30;;;;;;;6.80;2.78;;;3.00;99.90;;;;;;4880528;29;20052;-79
2021/01/03 04:59:58;;;;;;;6.90;3.05;;;3.00;99.90;;;;;;4880004;29;20139;-78
2021/01/03 05:02:58;;;;;;;6.72;3.50;;;3.00;99.90;;;;;;4880588;29;20399;-77
2021/01/03 05:05:30;;;;;;;9.07;3.10;;;3.00;99.90;;;;;;4881564;29;20097;-78
2021/01/03 05:08:04;;;;;;;6.80;3.40;;;3.00;99.90;;;;;;4880434;29;20041;-77
2021/01/03 05:10:31;;;;;;;8.65;3.60;;;3.00;99.90;;;;;;4881385;29;20044;-77
2021/01/03 05:13:05;;;;;;;6.72;3.50;;;3.10;99.90;;;;;;4880438;29;20041;-78
2021/01/03 05:15:33;;;;;;;9.25;3.65;;;3.00;99.90;;;;;;4881415;29;20059;-77
2021/01/03 05:18:00;;;;;;;7.75;3.78;;;3.00;99.90;;;;;;4881621;29;20101;-78
2021/01/03 05:20:26;;;;;;;4.85;2.30;;;;;;;;;;4879840;29;20084;-78
2021/01/03 05:22:51;;;;;;;8.30;3.55;;;3.00;99.90;;;;;;4879986;29;20088;-78
2021/01/03 05:25:19;;;;;;;8.20;3.65;;;3.00;99.90;;;;;;4880027;29;20052;-78
2021/01/03 05:28:02;;;;;;;9.63;3.55;;;2.80;99.90;;;;;;4879982;29;20041;-81
2021/01/03 05:30:29;;;;;;;7.63;3.15;;;3.00;99.90;;;;;;4880151;29;20131;-78
2021/01/03 05:33:04;;;;;;;7.93;3.47;;;3.00;99.90;;;;;;4879900;29;20041;-78
2021/01/03 05:35:36;;;;;;;7.13;3.30;;;3.00;99.90;;;;;;4881887;29;20128;-78
2021/01/03 05:38:02;;;;;;;7.10;3.35;;;3.00;99.90;;;;;;4877214;29;20045;-80
2021/01/03 05:40:31;;;;;;;7.63;3.05;;;3.00;99.90;;;;;;4880091;29;20128;-78
2021/01/03 05:43:12;;;;;;;8.40;3.22;;;3.00;99.90;;;;;;4881510;29;20041;-79
2021/01/03 05:45:43;;;;;;;5.68;2.95;;;3.00;99.90;;;;;;4880052;29;20543;-78
2021/01/03 05:48:20;;;;;;;7.35;3.17;;;2.90;99.90;;;;;;4879414;29;20049;-80
2021/01/03 05:50:45;;;;;;;6.85;3.05;;;3.00;99.90;;;;;;4879922;29;20045;-80
2021/01/03 05:53:19;;;;;;;5.47;2.78;;;2.90;99.90;;;;;;4879664;29;20127;-80
2021/01/03 05:55:56;;;;;;;8.25;3.72;;;3.00;99.90;;;;;;4881016;29;20053;-77
2021/01/03 05:58:30;;;;;;;7.78;3.72;;;3.00;99.90;;;;;;4879727;29;20082;-80
2021/01/03 06:01:12;;;;;;;6.85;3.20;;;2.90;99.90;;;;;;4883655;29;20045;-78
2021/01/03 06:03:38;;;;;;;6.63;2.83;;;2.90;99.90;;;;;;4883496;29;20093;-79
2021/01/03 06:06:10;;;;;;;5.55;2.75;;;3.00;99.90;;;;;;4884518;29;20049;-80
2021/01/03 06:08:39;;;;;;;5.78;2.80;;;2.90;99.90;;;;;;4883668;29;20045;-77
2021/01/03 06:11:14;;;;;;;7.75;3.28;;;2.90;99.90;;;;;;4884425;29;20037;-78
2021/01/03 06:13:49;;;;;;;6.90;3.00;;;2.90;99.90;;;;;;4883316;29;20052;-80
2021/01/03 06:16:17;;;;;;;5.15;2.85;;;2.90;99.90;;;;;;4883458;29;20049;-77
2021/01/03 06:18:47;;;;;;;8.63;3.10;;;2.90;99.90;;;;;;4884273;29;20095;-78
2021/01/03 06:21:21;;;;;;;5.93;2.95;;;2.90;99.90;;;;;;4883016;29;20099;-79
2021/01/03 06:23:58;;;;;;;7.70;2.90;;;2.90;99.90;;;;;;4882942;29;20480;-80
2021/01/03 06:26:31;;;;;;;7.30;3.05;;;2.90;99.90;;;;;;4883208;29;20041;-77
2021/01/03 06:29:04;;;;;;;4.53;2.30;;;2.90;99.90;;;;;;4882552;29;20491;-78
2021/01/03 06:31:58;;;;;;;5.40;2.50;;;2.90;99.90;;;;;;4882855;29;20167;-78
2021/01/03 06:34:29;;;;;;;6.93;2.85;;;2.90;99.90;;;;;;4884158;29;20048;-77
2021/01/03 06:36:58;;;;;;;5.78;2.90;;;2.90;99.90;;;;;;4884153;29;20089;-79
2021/01/03 06:39:40;;;;;;;5.00;2.10;;;2.90;99.90;;;;;;4882838;29;20045;-78
2021/01/03 06:42:38;;;;;;;5.57;2.55;;;2.90;99.90;;;;;;4884408;29;20045;-79
2021/01/03 06:45:47;;;;;;;5.93;2.58;;;2.90;99.90;;;;;;4873077;29;20491;-78
2021/01/03 06:48:48;;;;;;;5.85;3.00;;;2.90;99.90;;;;;;4873017;29;20551;-81
2021/01/03 06:51:30;;;;;;;5.68;2.60;;;2.90;99.90;;;;;;4865145;29;20060;-80
2021/01/03 06:54:30;;;;;;;5.72;2.83;;;2.90;99.90;;;;;;4880687;29;20189;-80
2021/01/03 06:57:11;;;;;;;5.95;2.35;;;3.00;99.90;;;;;;4884367;29;20139;-80
2021/01/03 06:59:57;;;;;;;4.82;2.80;;;3.00;99.90;;;;;;4882877;29;20052;-82
2021/01/03 07:02:23;;;;;;;6.28;2.63;;;3.00;99.90;;;;;;4884404;29;20041;-81
2021/01/03 07:04:49;;;;;;;4.00;2.30;;;2.90;99.90;;;;;;4884258;29;20859;-80
2021/01/03 07:07:19;;;;;;;5.63;2.92;;;3.20;99.90;;;;;;4883713;29;20045;-79
2021/01/03 07:09:55;;;;;;;5.68;2.88;;;2.90;99.90;;;;;;4882334;29;20049;-83
2021/01/03 07:12:36;;;;;;;6.68;2.63;;;2.90;99.90;;;;;;4882654;29;20049;-77
2021/01/03 07:15:06;;;;;;;7.97;3.33;;;2.90;99.90;;;;;;4882244;29;20049;-79
2021/01/03 07:18:09;;;;;;;5.95;2.80;;;2.90;99.90;;;;;;4882366;29;20276;-78
2021/01/03 07:20:37;;;;;;;5.82;2.95;;;3.00;99.90;;;;;;4883336;29;20043;-77
2021/01/03 07:23:12;;;;;;;6.63;3.15;;;2.90;99.90;;;;;;4883223;29;20048;-78
2021/01/03 07:25:50;;;;;;;6.72;3.05;;;2.90;99.90;;;;;;4882791;29;20055;-77
2021/01/03 07:28:18;;;;;;;7.80;2.95;;;3.00;99.90;;;;;;4882930;29;20048;-77
2021/01/03 07:30:53;;;;;;;7.05;2.90;;;2.90;99.90;;;;;;4882626;29;20048;-78
2021/01/03 07:33:33;;;;;;;8.32;2.88;;;3.00;99.90;;;;;;4882819;29;20097;-77
2021/01/03 07:36:19;;;;;;;5.82;3.10;;;3.00;99.90;;;;;;4883651;29;20049;-79
2021/01/03 07:39:05;;;;;;;8.75;3.38;;;3.00;99.90;;;;;;4881783;29;20065;-78
2021/01/03 07:41:31;;;;;;;4.78;2.50;;;;;;;;;;4882028;29;20033;-78
2021/01/03 07:44:00;;;;;;;8.63;3.38;;;2.90;99.90;;;;;;4882079;29;20083;-78
2021/01/03 07:46:40;;;;;;;7.03;3.05;;;2.90;99.90;;;;;;4881799;29;20080;-78
2021/01/03 07:52:00;;;;;;;6.50;3.30;;;2.90;99.90;;;;;;5132779;27;20722;-78
2021/01/03 07:54:26;;;;;;;7.93;3.67;;;2.90;99.90;;;;;;5131933;28;20039;-78
2021/01/03 07:56:52;;;;;;;8.68;3.92;;;2.90;99.90;;;;;;5132024;28;20031;-78
2021/01/03 07:59:18;;;;;;;6.85;3.60;;;2.90;99.90;;;;;;5131619;28;20492;-78
2021/01/03 08:01:49;;;;;;;7.38;3.70;;;3.00;99.90;;;;;;5133089;28;20080;-79
2021/01/03 08:04:25;;;;;;;7.40;3.20;;;3.00;99.90;;;;;;5131849;28;20396;-77
2021/01/03 08:07:01;;;;;;;8.00;3.60;;;2.90;99.90;;;;;;5129700;28;20073;-78
2021/01/03 08:09:28;;;;;;;7.78;3.67;;;3.00;99.90;;;;;;5131012;28;20043;-77
2021/01/03 08:12:07;;;;;;;8.55;4.43;;;3.00;99.90;;;;;;5131607;28;20553;-78
2021/01/03 08:14:36;;;;;;;6.53;3.47;;;3.00;99.90;;;;;;5132560;28;20038;-78
2021/01/03 08:17:02;;;;;;;7.10;3.20;;;3.00;99.90;;;;;;5131811;28;20043;-77
2021/01/03 08:19:29;;;;;;;8.02;3.45;;;3.00;99.90;;;;;;5131240;28;20088;-79
2021/01/03 08:22:00;;;;;;;10.10;3.63;;;3.00;99.90;;;;;;5131615;27;20434;-79
2021/01/03 08:24:28;;;;;;;11.38;4.28;;;3.00;99.90;;;;;;5131474;28;20134;-78
2021/01/03 08:26:56;;;;;;;8.10;3.85;;;3.00;99.90;;;;;;5131424;28;20514;-78
2021/01/03 08:29:31;;;;;;;10.10;4.68;;;3.00;99.90;;;;;;5131184;28;20042;-77
2021/01/03 08:32:00;;;;;;;9.98;4.32;;;3.00;99.90;;;;;;5132136;28;20027;-78
2021/01/03 08:34:28;;;;;;;9.90;4.15;;;3.00;99.90;;;;;;5132782;28;20039;-78
2021/01/03 08:36:54;;;;;;;8.40;4.15;;;;;;;;;;5133383;27;20036;-80
2021/01/03 08:39:20;;;;;;;9.40;4.35;;;;;;;;;;5132394;28;20039;-77
2021/01/03 08:41:55;;;;;;;9.70;4.80;;;3.00;99.90;;;;;;5132235;28;20083;-80
2021/01/03 08:44:24;;;;;;;8.57;4.15;;;3.00;99.90;;;;;;5131072;28;20093;-78
2021/01/03 08:47:00;;;;;;;10.48;4.53;;;3.00;99.90;;;;;;5131279;28;20089;-78
2021/01/03 08:49:26;;;;;;;11.63;5.55;;;3.00;99.90;;;;;;5131580;28;20050;-78
2021/01/03 08:52:08;;;;;;;9.73;4.55;;;3.00;99.90;;;;;;5131620;27;20039;-77
2021/01/03 08:54:34;;;;;;;10.45;4.40;;;3.00;99.90;;;;;;5132376;28;20484;-78
2021/01/03 08:57:02;;;;;;;8.38;4.13;;;2.90;99.90;;;;;;5132329;28;20046;-77
2021/01/03 08:59:28;;;;;;;10.48;5.20;;;2.90;99.90;;;;;;5131270;28;20035;-77
2021/01/03 09:01:54;;;;;;;11.32;4.72;;;2.90;99.90;;;;;;5127358;28;20036;-77
2021/01/03 09:04:21;;;;;;;13.07;5.00;;;2.90;99.90;;;;;;5118119;28;20396;-78
2021/01/03 09:06:51;;;;;;;10.55;4.75;;;2.90;99.90;;;;;;5118085;28;20039;-82
2021/01/03 09:09:20;;;;;;;10.70;5.47;;;2.90;99.90;;;;;;5117437;28;20405;-78
2021/01/03 09:11:50;;;;;;;9.80;4.03;;;2.90;99.90;;;;;;5117296;28;20082;-77
2021/01/03 09:14:26;;;;;;;9.23;4.55;;;2.90;99.90;;;;;;5117450;28;20036;-77
2021/01/03 09:16:55;;;;;;;11.80;5.20;;;2.90;99.90;;;;;;5117542;28;20424;-78
2021/01/03 09:19:27;;;;;;;11.77;5.40;;;2.90;99.90;;;;;;5117606;28;20111;-78
2021/01/03 09:21:55;;;;;;;10.52;4.90;;;3.00;99.90;;;;;;5118669;28;20031;-79
2021/01/03 09:24:24;;;;;;;12.50;5.13;;;2.90;99.90;;;;;;5117569;28;20044;-78
2021/01/03 09:26:51;;;;;;;11.95;5.88;;;2.90;99.90;;;;;;5117291;28;20036;-78
2021/01/03 09:29:23;;;;;;;15.05;5.97;;;3.00;99.90;;;;;;5117353;28;20040;-78
2021/01/03 09:32:01;;;;;;;11.23;4.63;;;2.90;99.90;;;;;;5117738;28;20031;-77
2021/01/03 09:34:49;;;;;;;10.50;5.13;;;2.90;99.90;;;;;;5117634;28;20074;-78
2021/01/03 09:37:23;;;;;;;11.05;5.85;;;2.90;99.90;;;;;;5117182;28;20108;-78
2021/01/03 09:40:07;;;;;;;15.05;6.15;;;2.90;99.90;;;;;;5117681;28;20060;-78
2021/01/03 09:42:37;;;;;;;16.73;6.90;;;2.90;99.90;;;;;;5117229;28;20561;-80
2021/01/03 09:45:16;;;;;;;12.35;4.18;;;2.90;99.90;;;;;;5118700;28;20053;-78
2021/01/03 09:47:44;;;;;;;13.07;5.20;;;2.90;99.90;;;;;;5117307;28;20137;-80
2021/01/03 09:50:24;;;;;;;12.40;5.15;;;2.90;99.90;;;;;;5116241;28;20139;-80
2021/01/03 09:52:56;;;;;;;18.35;7.68;;;2.90;99.90;;;;;;5117152;28;20048;-78
2021/01/03 09:55:26;;;;;;;18.10;7.45;;;1.80;99.90;;;;;;5117678;28;20079;-79
2021/01/03 09:58:00;;;;;;;18.05;7.35;;;2.90;99.90;;;;;;5116509;28;20058;-80
2021/01/03 10:00:49;;;;;;;17.23;7.53;;;3.00;99.90;;;;;;5117753;28;20031;-81
2021/01/03 10:03:17;;;;;;;14.85;5.93;;;3.00;99.90;;;;;;5117502;28;20504;-80
2021/01/03 10:05:43;;;;;;;19.50;7.97;;;3.00;99.90;;;;;;5116691;28;20477;-81
2021/01/03 10:08:14;;;;;;;21.35;7.55;;;2.90;99.90;;;;;;5117260;28;20049;-80
2021/01/03 10:10:43;;;;;;;19.70;6.38;;;2.90;99.90;;;;;;5124879;28;20066;-79
2021/01/03 10:13:09;;;;;;;20.13;8.07;;;2.90;99.90;;;;;;5117710;28;20067;-79
2021/01/03 10:15:37;;;;;;;20.38;8.23;;;2.90;99.90;;;;;;5116396;28;20039;-78
2021/01/03 10:18:06;;;;;;;17.38;7.85;;;2.90;99.90;;;;;;5114564;28;20568;-77
2021/01/03 10:20:44;;;;;;;18.52;8.38;;;2.90;99.90;;;;;;5117010;28;20039;-80
2021/01/03 10:23:13;;;;;;;18.88;7.78;;;2.90;99.90;;;;;;5118384;28;20042;-77
2021/01/03 10:25:38;;;;;;;17.00;7.32;;;2.90;99.90;;;;;;5117190;28;20101;-78
2021/01/03 10:28:08;;;;;;;18.40;7.43;;;2.90;99.90;;;;;;5116274;28;20035;-77
2021/01/03 10:30:35;;;;;;;17.92;7.30;;;2.90;99.90;;;;;;5116952;28;20126;-79
2021/01/03 10:33:01;;;;;;;16.23;7.25;;;2.90;99.90;;;;;;5115401;28;20045;-78
2021/01/03 10:35:27;;;;;;;16.58;7.70;;;2.90;99.90;;;;;;5116414;28;20460;-78
2021/01/03 10:37:53;;;;;;;14.38;4.57;;;3.00;99.90;;;;;;5117060;28;20036;-78
2021/01/03 10:40:20;;;;;;;15.40;6.03;;;3.00;99.90;;;;;;5114401;28;20031;-78
2021/01/03 10:42:47;;;;;;;17.83;6.93;;;2.90;99.90;;;;;;5114477;28;20044;-80
2021/01/03 10:45:14;;;;;;;17.75;7.05;;;2.90;99.90;;;;;;5114226;28;20044;-77
2021/01/03 10:47:40;;;;;;;13.63;6.07;;;2.90;99.90;;;;;;5113905;28;20048;-78
2021/01/03 10:50:07;;;;;;;16.08;6.60;;;3.00;99.90;;;;;;5113198;28;20043;-77
2021/01/03 10:52:33;;;;;;;17.15;5.78;;;;;;;;;;5113757;28;20043;-78
2021/01/03 10:54:59;;;;;;;15.75;5.82;;;3.00;99.90;;;;;;5112997;28;20617;-76
2021/01/03 10:57:24;;;;;;;16.05;6.28;;;3.00;99.90;;;;;;5113556;28;20054;-79
2021/01/03 10:59:51;;;;;;;14.90;6.00;;;3.00;99.90;;;;;;5114624;28;20050;-77
2021/01/03 11:02:17;;;;;;;18.70;6.32;;;3.00;99.90;;;;;;5114014;28;20097;-77
2021/01/03 11:04:43;;;;;;;14.30;6.35;;;3.00;99.90;;;;;;5113377;28;20420;-78
2021/01/03 11:07:10;;;;;;;15.52;5.88;;;3.00;99.90;;;;;;5113733;28;20048;-78
2021/01/03 11:09:36;;;;;;;15.82;6.28;;;3.00;99.90;;;;;;5101130;28;20115;-80
2021/01/03 11:12:05;;;;;;;12.32;5.47;;;3.00;99.90;;;;;;5092785;28;20155;-78
2021/01/03 11:14:31;;;;;;;15.07;6.18;;;;;;;;;;5092772;28;20067;-77
2021/01/03 11:16:57;;;;;;;11.25;4.07;;;3.10;99.90;;;;;;5094419;28;20504;-78
2021/01/03 11:19:23;;;;;;;13.00;4.97;;;3.00;99.90;;;;;;5092456;28;20038;-77
2021/01/03 11:21:53;;;;;;;9.43;4.00;;;3.10;99.90;;;;;;5093138;28;20043;-77
2021/01/03 11:24:19;;;;;;;11.05;5.45;;;3.10;99.90;;;;;;5092800;28;20040;-78
2021/01/03 11:26:44;;;;;;;13.38;6.45;;;3.10;99.90;;;;;;5093557;28;20044;-78
2021/01/03 11:29:13;;;;;;;6.60;2.75;;;3.10;99.90;;;;;;5093317;28;20042;-78
2021/01/03 11:31:41;;;;;;;9.70;3.47;;;3.20;99.90;;;;;;5092807;28;20036;-77
2021/01/03 11:34:09;;;;;;;8.10;3.67;;;3.10;99.90;;;;;;5092963;28;20044;-78
2021/01/03 11:36:36;;;;;;;10.70;5.38;;;3.10;99.90;;;;;;5092212;28;20040;-77
2021/01/03 11:39:06;;;;;;;10.80;4.22;;;3.20;99.90;;;;;;5092264;28;20047;-78
2021/01/03 11:41:32;;;;;;;10.35;4.88;;;3.20;99.90;;;;;;5093435;28;20047;-78
2021/01/03 11:43:57;;;;;;;10.38;4.15;;;3.20;99.90;;;;;;5092501;28;20413;-78
2021/01/03 11:46:24;;;;;;;9.20;3.53;;;3.20;99.90;;;;;;5092231;28;20035;-78
2021/01/03 11:48:49;;;;;;;9.48;3.65;;;3.30;99.90;;;;;;5091835;28;20039;-79
2021/01/03 11:51:16;;;;;;;8.55;4.03;;;3.20;99.90;;;;;;5092304;28;20469;-80
2021/01/03 11:53:42;;;;;;;7.43;2.85;;;3.20;99.90;;;;;;5092291;28;20039;-78
2021/01/03 11:56:08;;;;;;;9.45;4.18;;;3.10;99.90;;;;;;5092294;28;20039;-78
2021/01/03 11:58:34;;;;;;;12.15;4.95;;;3.20;99.90;;;;;;5091744;28;20047;-78
2021/01/03 12:00:59;;;;;;;14.93;5.93;;;3.20;99.90;;;;;;5092272;28;20032;-78
2021/01/03 12:03:25;;;;;;;13.80;5.75;;;3.20;99.90;;;;;;5092268;28;20040;-79
2021/01/03 12:05:51;;;;;;;10.68;4.30;;;3.20;99.90;;;;;;5091764;28;20129;-78
2021/01/03 12:08:17;;;;;;;11.80;5.07;;;3.10;99.90;;;;;;5091736;28;20032;-78
2021/01/03 12:10:43;;;;;;;8.38;4.35;;;3.10;99.90;;;;;;5092082;28;20040;-77
2021/01/03 12:13:10;;;;;;;5.60;2.72;;;;;;;;;;5093414;28;20109;-78
2021/01/03 12:15:36;;;;;;;8.95;3.63;;;;;;;;;;5092054;28;20070;-78
2021/01/03 12:18:03;;;;;;;8.50;3.30;;;3.00;99.90;;;;;;5091388;28;20652;-78
2021/01/03 12:20:28;;;;;;;9.50;2.95;;;3.10;99.90;;;;;;5093381;28;20123;-76
2021/01/03 12:22:54;;;;;;;10.10;4.35;;;3.00;99.90;;;;;;5092410;28;20066;-78
2021/01/03 12:25:20;;;;;;;11.27;4.22;;;;;;;;;;5091788;28;20040;-77
2021/01/03 12:27:46;;;;;;;9.50;4.65;;;;;;;;;;5094632;28;20545;-77
2021/01/03 12:30:15;;;;;;;11.52;4.22;;;3.00;99.90;;;;;;5092272;28;20044;-77
2021/01/03 12:32:41;;;;;;;9.63;3.78;;;2.90;99.90;;;;;;5107653;28;20043;-79
2021/01/03 12:35:08;;;;;;;9.13;3.75;;;2.90;99.90;;;;;;5102350;28;20039;-78
2021/01/03 12:37:36;;;;;;;9.40;3.65;;;2.80;99.90;;;;;;5096214;28;20472;-78
2021/01/03 12:40:03;;;;;;;8.35;4.05;;;2.80;99.90;;;;;;5101689;28;20040;-76
2021/01/03 12:42:29;;;;;;;8.60;4.38;;;2.80;99.90;;;;;;5108108;28;20477;-78
2021/01/03 12:44:55;;;;;;;6.82;3.38;;;2.70;99.90;;;;;;5115511;28;20118;-77
2021/01/03 12:47:21;;;;;;;8.30;3.90;;;2.80;99.90;;;;;;5097345;28;20440;-80
2021/01/03 12:49:47;;;;;;;7.75;3.60;;;2.80;99.90;;;;;;5103684;28;20043;-82
2021/01/03 12:52:13;;;;;;;10.52;4.30;;;;;;;;;;5111079;28;20032;-78
2021/01/03 12:54:39;;;;;;;7.60;4.22;;;2.70;99.90;;;;;;5117633;28;20057;-79
2021/01/03 12:57:05;;;;;;;9.82;4.68;;;2.70;99.90;;;;;;5107592;28;20677;-81
2021/01/03 12:59:30;;;;;;;10.25;4.05;;;2.70;99.90;;;;;;5109038;28;20039;-81
2021/01/03 13:01:56;;;;;;;9.07;3.88;;;2.70;99.90;;;;;;5096957;28;20036;-81
2021/01/03 13:04:22;;;;;;;10.07;3.80;;;2.70;99.90;;;;;;5095856;28;20043;-81
2021/01/03 13:06:48;;;;;;;7.13;3.45;;;2.70;99.90;;;;;;5098680;28;20401;-81
2021/01/03 13:09:17;;;;;;;9.00;4.13;;;2.60;99.90;;;;;;5096626;28;20044;-81
2021/01/03 13:11:43;;;;;;;8.87;4.00;;;2.60;99.90;;;;;;5096150;28;20436;-81
2021/01/03 13:14:10;;;;;;;7.55;3.53;;;2.60;99.90;;;;;;5098033;28;20316;-79
2021/01/03 13:16:36;;;;;;;12.00;4.03;;;2.60;99.90;;;;;;5095231;28;20044;-77